Time;durP1;ratioP1;P1;durP2;ratioP2;P2;SDS_P1;SDS_P2;PMS_P1;PMS_P2;Temp;Humidity;BMP_temperature;BMP_pressure;BME280_temperature;BME280_humidity;BME280_pressure;Samples;Min_cycle;Max_cycle;Signal;HPM_P1;HPM_P2
2023/06/10 00:02:53;;;;;;;8.70;8.00;;;18.30;99.90;;;;;;6324925;28;20383;-61
2023/06/10 00:05:56;;;;;;;9.03;7.33;;;18.30;99.90;;;;;;6324732;28;20472;-61
2023/06/10 00:09:00;;;;;;;8.63;7.80;;;18.30;99.90;;;;;;6324716;28;20230;-61
2023/06/10 00:12:05;;;;;;;9.47;7.53;;;18.20;99.90;;;;;;6324450;28;20590;-61
2023/06/10 00:15:10;;;;;;;10.33;7.23;;;18.20;99.90;;;;;;6324739;28;20614;-61
2023/06/10 00:18:14;;;;;;;8.00;7.40;;;18.20;99.90;;;;;;6324780;28;20469;-61
2023/06/10 00:21:17;;;;;;;8.80;8.10;;;18.20;99.90;;;;;;6324519;28;20472;-61
2023/06/10 00:24:20;;;;;;;8.50;7.80;;;18.20;99.90;;;;;;6324632;28;20673;-61
2023/06/10 00:27:24;;;;;;;8.60;7.80;;;18.10;99.90;;;;;;6324475;28;20256;-61
2023/06/10 00:30:28;;;;;;;9.20;8.40;;;18.10;99.90;;;;;;6324230;28;20226;-61
2023/06/10 00:33:31;;;;;;;9.30;8.40;;;18.00;99.90;;;;;;6324338;28;20490;-61
2023/06/10 00:36:35;;;;;;;8.37;7.70;;;18.00;99.90;;;;;;6324328;28;20461;-61
2023/06/10 00:39:39;;;;;;;8.47;7.63;;;18.00;99.90;;;;;;6324056;28;21081;-61
2023/06/10 00:42:42;;;;;;;8.20;7.50;;;18.00;99.90;;;;;;6324320;28;20464;-61
2023/06/10 00:45:46;;;;;;;8.30;7.60;;;17.90;99.90;;;;;;6324015;28;20894;-61
2023/06/10 00:48:50;;;;;;;9.17;8.27;;;17.90;99.90;;;;;;6324401;28;20237;-60
2023/06/10 00:51:54;;;;;;;10.00;7.60;;;18.00;99.90;;;;;;6323942;28;20951;-60
2023/06/10 00:54:58;;;;;;;8.23;7.43;;;17.90;99.90;;;;;;6324044;28;20778;-60
2023/06/10 00:58:02;;;;;;;7.87;7.27;;;17.90;99.90;;;;;;6324168;28;20483;-61
2023/06/10 01:01:06;;;;;;;8.90;8.20;;;17.90;99.90;;;;;;6309774;28;20494;-61
2023/06/10 01:04:11;;;;;;;7.50;6.80;;;17.80;99.90;;;;;;6323616;28;20752;-61
2023/06/10 01:07:21;;;;;;;8.97;8.17;;;17.90;99.90;;;;;;6323573;28;20478;-61
2023/06/10 01:10:30;;;;;;;9.10;8.17;;;17.80;99.90;;;;;;6324322;28;20486;-60
2023/06/10 01:13:37;;;;;;;7.07;6.53;;;17.80;99.90;;;;;;6323924;28;20775;-60
2023/06/10 01:16:42;;;;;;;7.83;7.03;;;17.80;99.90;;;;;;6323778;28;20972;-61
2023/06/10 01:19:45;;;;;;;8.17;7.37;;;17.80;99.90;;;;;;6323388;28;20716;-61
2023/06/10 01:22:50;;;;;;;8.97;8.07;;;17.70;99.90;;;;;;6327790;28;20440;-61
2023/06/10 01:26:00;;;;;;;7.83;7.13;;;17.70;99.90;;;;;;6328785;28;20440;-61
2023/06/10 01:29:11;;;;;;;8.47;7.03;;;17.70;99.90;;;;;;6328535;28;20440;-61
2023/06/10 01:32:27;;;;;;;7.40;6.70;;;17.70;99.90;;;;;;6328726;28;20846;-61
2023/06/10 01:35:32;;;;;;;7.33;6.53;;;17.70;99.90;;;;;;6332949;28;20505;-61
2023/06/10 01:38:41;;;;;;;8.53;7.73;;;17.60;99.90;;;;;;6348124;27;20478;-61
2023/06/10 01:41:44;;;;;;;7.93;7.23;;;17.60;99.90;;;;;;6349435;27;20515;-61
2023/06/10 01:44:48;;;;;;;7.83;7.13;;;17.50;99.90;;;;;;6352347;28;20483;-61
2023/06/10 01:47:51;;;;;;;9.30;8.17;;;17.50;99.90;;;;;;6348217;28;20470;-61
2023/06/10 01:50:55;;;;;;;7.20;6.70;;;17.50;99.90;;;;;;6353085;28;20471;-62
2023/06/10 01:54:00;;;;;;;8.10;7.27;;;17.40;99.90;;;;;;6352660;28;21028;-62
2023/06/10 01:57:04;;;;;;;8.77;7.83;;;17.50;99.90;;;;;;6349823;28;20472;-62
2023/06/10 02:00:08;;;;;;;7.50;6.90;;;17.40;99.90;;;;;;6351961;28;20973;-62
2023/06/10 02:03:12;;;;;;;7.87;7.07;;;17.40;99.90;;;;;;6352590;27;20482;-62
2023/06/10 02:06:15;;;;;;;7.00;6.40;;;17.30;99.90;;;;;;6351157;27;20470;-61
2023/06/10 02:09:19;;;;;;;9.00;8.20;;;17.20;99.90;;;;;;6344513;28;20514;-61
2023/06/10 02:12:23;;;;;;;8.30;6.47;;;17.20;99.90;;;;;;6352091;28;20555;-62
2023/06/10 02:15:26;;;;;;;7.90;7.20;;;17.20;99.90;;;;;;6347151;27;20479;-62
2023/06/10 02:18:29;;;;;;;8.70;7.80;;;17.20;99.90;;;;;;6347153;28;20468;-61
2023/06/10 02:21:34;;;;;;;8.10;7.30;;;17.20;99.90;;;;;;6349049;27;20524;-62
2023/06/10 02:24:42;;;;;;;7.53;6.83;;;17.30;99.90;;;;;;6351012;28;20467;-61
2023/06/10 02:27:45;;;;;;;8.60;7.67;;;17.20;99.90;;;;;;6349340;28;20464;-61
2023/06/10 02:30:48;;;;;;;8.00;7.20;;;17.20;99.90;;;;;;6345915;27;20468;-61
2023/06/10 02:33:51;;;;;;;7.73;7.03;;;17.20;99.90;;;;;;6350179;27;20467;-61
2023/06/10 02:36:55;;;;;;;7.87;7.23;;;17.20;99.90;;;;;;6348769;27;20471;-62
2023/06/10 02:40:00;;;;;;;7.73;7.03;;;17.20;99.90;;;;;;6351224;28;20807;-61
2023/06/10 02:43:03;;;;;;;7.70;7.00;;;17.10;99.90;;;;;;6348707;28;20474;-62
2023/06/10 02:46:06;;;;;;;8.60;7.07;;;17.10;99.90;;;;;;6350805;28;20748;-61
2023/06/10 02:49:10;;;;;;;8.73;7.93;;;17.10;99.90;;;;;;6345958;27;20479;-61
2023/06/10 02:52:13;;;;;;;7.87;7.17;;;17.10;99.90;;;;;;6350736;28;20467;-61
2023/06/10 02:55:17;;;;;;;7.73;7.03;;;17.10;99.90;;;;;;6350274;28;20468;-61
2023/06/10 02:58:22;;;;;;;8.03;7.33;;;17.10;99.90;;;;;;6350053;28;20470;-61
2023/06/10 03:01:25;;;;;;;10.10;7.20;;;17.10;99.90;;;;;;6350972;28;20471;-61
2023/06/10 03:04:30;;;;;;;8.10;7.33;;;17.00;99.90;;;;;;6351165;28;20464;-61
2023/06/10 03:07:35;;;;;;;8.10;7.20;;;17.00;99.90;;;;;;6341699;27;20562;-61
2023/06/10 03:10:39;;;;;;;8.10;7.37;;;17.00;99.90;;;;;;6350705;28;20485;-61
2023/06/10 03:13:42;;;;;;;8.13;7.43;;;17.00;99.90;;;;;;6350699;27;20993;-61
2023/06/10 03:16:45;;;;;;;8.03;7.23;;;16.90;99.90;;;;;;6322390;28;20804;-61
2023/06/10 03:19:49;;;;;;;7.63;6.80;;;16.80;99.90;;;;;;6325535;28;20448;-61
2023/06/10 03:22:52;;;;;;;9.50;8.63;;;16.80;99.90;;;;;;6301107;28;20910;-61
2023/06/10 03:25:56;;;;;;;8.27;7.53;;;16.80;99.90;;;;;;6301354;28;20483;-61
2023/06/10 03:28:59;;;;;;;7.27;6.67;;;16.90;99.90;;;;;;6300606;28;20897;-61
2023/06/10 03:32:03;;;;;;;8.30;7.50;;;16.90;99.90;;;;;;6300734;28;20437;-61
2023/06/10 03:35:07;;;;;;;7.30;6.60;;;17.00;99.90;;;;;;6300531;28;20514;-61
2023/06/10 03:38:11;;;;;;;7.67;7.07;;;17.00;99.90;;;;;;6299942;28;20469;-61
2023/06/10 03:41:15;;;;;;;7.20;6.50;;;17.10;99.90;;;;;;6300273;28;20473;-61
2023/06/10 03:44:19;;;;;;;7.93;7.17;;;17.20;99.90;;;;;;6299608;28;20474;-61
2023/06/10 03:47:22;;;;;;;8.17;7.37;;;17.20;99.90;;;;;;6300001;28;20580;-62
2023/06/10 03:50:26;;;;;;;7.83;7.03;;;17.30;99.90;;;;;;6299612;28;20488;-62
2023/06/10 03:53:29;;;;;;;8.50;7.70;;;17.30;99.90;;;;;;6299953;28;20469;-61
2023/06/10 03:56:34;;;;;;;7.67;7.07;;;17.40;99.90;;;;;;6299931;28;20487;-61
2023/06/10 03:59:37;;;;;;;8.30;7.50;;;17.40;99.90;;;;;;6300096;28;20484;-61
2023/06/10 04:02:45;;;;;;;8.23;7.30;;;17.50;99.90;;;;;;6299824;28;20472;-61
2023/06/10 04:05:50;;;;;;;8.00;7.30;;;17.60;99.90;;;;;;6299813;28;20479;-61
2023/06/10 04:08:53;;;;;;;9.23;6.80;;;17.60;99.90;;;;;;6299484;28;20493;-61
2023/06/10 04:11:58;;;;;;;6.80;6.20;;;17.60;99.90;;;;;;6299469;28;20993;-61
2023/06/10 04:15:05;;;;;;;6.97;6.37;;;17.70;99.90;;;;;;6299507;28;20473;-61
2023/06/10 04:18:09;;;;;;;8.03;7.40;;;17.70;99.90;;;;;;6299463;28;20554;-61
2023/06/10 04:21:12;;;;;;;10.00;6.63;;;17.80;99.90;;;;;;6299583;28;20488;-61
2023/06/10 04:24:15;;;;;;;7.43;6.80;;;17.80;99.90;;;;;;6320414;28;20474;-61
2023/06/10 04:27:20;;;;;;;7.10;6.50;;;17.90;99.90;;;;;;6324645;28;20461;-61
2023/06/10 04:30:23;;;;;;;8.30;6.43;;;17.90;99.90;;;;;;6324306;28;20468;-61
2023/06/10 04:33:28;;;;;;;7.87;7.17;;;18.00;99.90;;;;;;6324835;28;20514;-61
2023/06/10 04:36:31;;;;;;;7.77;7.07;;;18.00;99.90;;;;;;6324302;28;20538;-62
2023/06/10 04:39:35;;;;;;;7.10;6.50;;;18.10;99.90;;;;;;6324420;28;20472;-62
2023/06/10 04:42:43;;;;;;;6.43;5.93;;;18.10;99.90;;;;;;6324307;28;20487;-61
2023/06/10 04:45:46;;;;;;;6.90;6.30;;;18.20;99.90;;;;;;6324220;28;20230;-61
2023/06/10 04:48:50;;;;;;;6.80;6.30;;;18.20;99.90;;;;;;6324036;28;20229;-61
2023/06/10 04:51:53;;;;;;;6.87;6.20;;;18.30;99.90;;;;;;6324217;28;20585;-61
2023/06/10 04:54:56;;;;;;;7.20;6.60;;;18.40;99.90;;;;;;6324162;28;20236;-62
2023/06/10 04:58:01;;;;;;;6.60;6.10;;;18.50;99.90;;;;;;6327715;28;20237;-61
2023/06/10 05:01:04;;;;;;;7.60;6.90;;;18.70;99.90;;;;;;6329113;28;20553;-61
2023/06/10 05:04:07;;;;;;;9.57;6.73;;;18.80;99.90;;;;;;6329375;28;20236;-61
2023/06/10 05:07:10;;;;;;;7.00;6.20;;;18.90;99.90;;;;;;6329171;28;20226;-61
2023/06/10 05:10:13;;;;;;;7.10;6.50;;;19.00;99.90;;;;;;6319723;28;20230;-61
2023/06/10 05:13:19;;;;;;;7.00;6.40;;;19.20;99.90;;;;;;6328892;28;20230;-61
2023/06/10 05:16:22;;;;;;;6.53;6.03;;;19.40;99.90;;;;;;6329066;28;20237;-61
2023/06/10 05:19:25;;;;;;;7.47;6.77;;;19.40;99.90;;;;;;6329064;28;20367;-61
2023/06/10 05:22:28;;;;;;;7.30;6.70;;;19.60;99.90;;;;;;6328492;28;20242;-61
2023/06/10 05:25:32;;;;;;;8.17;7.47;;;19.70;99.90;;;;;;6328895;28;20226;-61
2023/06/10 05:28:39;;;;;;;7.83;7.23;;;19.80;99.90;;;;;;6328278;28;20230;-61
2023/06/10 05:31:42;;;;;;;7.33;6.70;;;19.90;99.90;;;;;;6328308;28;20232;-61
2023/06/10 05:34:45;;;;;;;7.07;6.47;;;20.00;99.90;;;;;;6328406;28;20225;-62
2023/06/10 05:37:49;;;;;;;7.93;7.23;;;20.10;99.90;;;;;;6328224;28;20669;-61
2023/06/10 05:40:52;;;;;;;8.20;7.43;;;20.10;99.90;;;;;;6328337;28;20234;-61
2023/06/10 05:43:57;;;;;;;7.87;7.17;;;20.20;99.90;;;;;;6328300;28;20283;-61
2023/06/10 05:47:00;;;;;;;9.23;8.47;;;20.20;99.90;;;;;;6327941;28;20569;-60
2023/06/10 05:50:06;;;;;;;7.97;7.27;;;20.20;99.90;;;;;;6328459;28;20218;-60
2023/06/10 05:53:14;;;;;;;7.30;6.73;;;20.20;99.90;;;;;;6328280;28;20233;-60
2023/06/10 05:56:18;;;;;;;8.00;6.37;;;20.30;99.90;;;;;;6328257;28;20233;-60
2023/06/10 05:59:22;;;;;;;7.80;7.13;;;20.30;99.90;;;;;;6327982;28;20689;-60
2023/06/10 06:02:26;;;;;;;6.80;6.30;;;20.40;99.90;;;;;;6327999;28;20309;-60
2023/06/10 06:05:34;;;;;;;7.90;7.10;;;20.40;99.90;;;;;;6327993;28;20237;-60
2023/06/10 06:08:37;;;;;;;8.73;8.03;;;20.30;99.90;;;;;;6327171;28;20532;-60
2023/06/10 06:11:40;;;;;;;8.37;7.70;;;20.40;99.90;;;;;;6327389;28;20580;-60
2023/06/10 06:14:45;;;;;;;8.70;6.40;;;20.50;99.90;;;;;;6327737;28;20232;-60
2023/06/10 06:17:48;;;;;;;7.27;6.67;;;20.50;99.90;;;;;;6327750;28;20233;-60
2023/06/10 06:20:52;;;;;;;8.40;7.70;;;20.60;99.90;;;;;;6327131;28;20234;-60
2023/06/10 06:23:55;;;;;;;8.10;7.40;;;20.70;99.90;;;;;;6327486;28;20222;-60
2023/06/10 06:26:58;;;;;;;7.23;6.63;;;20.70;99.90;;;;;;6327034;28;20245;-60
2023/06/10 06:30:03;;;;;;;8.47;7.87;;;20.80;99.90;;;;;;6327345;28;20313;-60
2023/06/10 06:33:06;;;;;;;7.90;7.30;;;20.80;99.90;;;;;;6326793;28;20226;-60
2023/06/10 06:36:10;;;;;;;9.40;8.50;;;20.90;99.90;;;;;;6326967;28;20678;-61
2023/06/10 06:39:13;;;;;;;8.80;7.90;;;21.00;99.90;;;;;;6326985;28;20607;-60
2023/06/10 06:42:16;;;;;;;8.80;8.10;;;21.10;99.90;;;;;;6326969;28;20662;-60
2023/06/10 06:45:21;;;;;;;10.23;9.23;;;21.20;99.90;;;;;;6326662;28;20309;-60
2023/06/10 06:48:24;;;;;;;9.17;8.37;;;21.30;99.90;;;;;;6326919;28;20218;-60
2023/06/10 06:51:27;;;;;;;10.50;9.60;;;21.40;99.90;;;;;;6326762;28;20566;-60
2023/06/10 06:54:32;;;;;;;9.47;8.47;;;21.30;99.90;;;;;;6326741;28;20236;-61
2023/06/10 06:57:36;;;;;;;9.40;7.93;;;21.40;99.90;;;;;;6326442;28;20298;-60
2023/06/10 07:00:40;;;;;;;10.47;9.47;;;21.40;99.90;;;;;;6326698;28;20317;-60
2023/06/10 07:03:43;;;;;;;9.90;9.10;;;21.50;99.90;;;;;;6326729;28;20283;-60
2023/06/10 07:06:47;;;;;;;10.10;9.20;;;21.30;99.90;;;;;;6326433;28;20244;-60
2023/06/10 07:09:50;;;;;;;9.87;8.97;;;21.30;99.90;;;;;;6326349;28;20320;-60
2023/06/10 07:12:54;;;;;;;9.00;8.30;;;21.40;99.90;;;;;;6325870;28;20226;-60
2023/06/10 07:15:58;;;;;;;11.13;10.13;;;21.50;99.90;;;;;;6326288;28;20700;-60
2023/06/10 07:19:02;;;;;;;10.30;9.30;;;21.70;99.90;;;;;;6324757;28;20311;-60
2023/06/10 07:22:08;;;;;;;8.70;8.00;;;21.70;99.90;;;;;;6326047;28;20234;-60
2023/06/10 07:25:11;;;;;;;8.27;7.57;;;21.80;99.90;;;;;;6325698;28;20359;-60
2023/06/10 07:28:15;;;;;;;9.00;8.00;;;21.80;99.90;;;;;;6325527;28;20226;-60
2023/06/10 07:31:19;;;;;;;8.13;7.53;;;21.90;99.90;;;;;;6325952;28;20275;-60
2023/06/10 07:34:23;;;;;;;9.03;8.23;;;22.00;99.90;;;;;;6325720;28;20658;-60
2023/06/10 07:37:26;;;;;;;7.63;7.00;;;22.00;99.90;;;;;;6325741;28;20794;-60
2023/06/10 07:40:29;;;;;;;8.47;7.77;;;22.00;99.90;;;;;;6325164;28;20670;-60
2023/06/10 07:43:36;;;;;;;9.63;8.73;;;22.10;99.90;;;;;;6325176;28;20250;-60
2023/06/10 07:46:40;;;;;;;8.60;7.80;;;22.20;99.90;;;;;;6325519;28;20232;-60
2023/06/10 07:49:44;;;;;;;9.20;8.50;;;22.20;99.90;;;;;;6325038;28;20263;-60
2023/06/10 07:52:47;;;;;;;8.07;7.37;;;21.90;99.90;;;;;;6325286;28;20234;-60
2023/06/10 07:55:50;;;;;;;7.03;6.53;;;21.90;99.90;;;;;;6325530;28;20221;-60
2023/06/10 07:58:53;;;;;;;8.27;7.57;;;22.00;99.90;;;;;;6325156;28;20256;-60
2023/06/10 08:01:58;;;;;;;7.60;7.00;;;22.10;99.90;;;;;;6325142;28;20226;-60
2023/06/10 08:05:01;;;;;;;7.83;7.23;;;22.40;99.90;;;;;;6324766;28;20359;-60
2023/06/10 08:08:05;;;;;;;7.57;6.93;;;22.60;99.90;;;;;;6324886;28;20198;-60
2023/06/10 08:11:08;;;;;;;7.97;7.27;;;22.90;99.90;;;;;;6324919;28;20238;-60
2023/06/10 08:14:11;;;;;;;7.60;6.90;;;23.30;99.90;;;;;;6325045;28;20656;-60
2023/06/10 08:17:16;;;;;;;7.73;7.13;;;23.60;99.90;;;;;;6324829;28;20226;-60
2023/06/10 08:20:19;;;;;;;8.40;7.70;;;23.90;99.90;;;;;;6324399;28;20245;-60
2023/06/10 08:23:22;;;;;;;8.10;7.40;;;24.00;99.90;;;;;;6324776;28;20271;-60
2023/06/10 08:26:25;;;;;;;8.13;7.50;;;24.10;99.90;;;;;;6324852;28;20226;-60
2023/06/10 08:29:29;;;;;;;8.40;7.80;;;24.20;99.90;;;;;;6324728;28;20226;-60
2023/06/10 08:32:33;;;;;;;8.20;7.50;;;24.10;99.90;;;;;;6323928;28;20305;-60
2023/06/10 08:35:36;;;;;;;8.63;7.83;;;24.30;99.90;;;;;;6321060;28;20218;-60
2023/06/10 08:38:40;;;;;;;10.00;9.20;;;24.60;99.90;;;;;;6323753;28;20669;-60
2023/06/10 08:41:49;;;;;;;9.57;8.80;;;24.50;99.90;;;;;;6323546;28;20249;-60
2023/06/10 08:44:55;;;;;;;9.03;8.23;;;24.60;99.90;;;;;;6323758;28;20222;-60
2023/06/10 08:48:01;;;;;;;8.80;8.10;;;24.20;99.90;;;;;;6321303;28;20674;-60
2023/06/10 08:51:05;;;;;;;9.60;8.80;;;24.10;99.90;;;;;;6323545;28;20642;-60
2023/06/10 08:54:16;;;;;;;10.17;9.30;;;24.20;99.90;;;;;;6324220;28;20222;-60
2023/06/10 08:57:21;;;;;;;9.20;8.40;;;24.20;99.90;;;;;;6323859;28;20225;-60
2023/06/10 09:00:25;;;;;;;9.87;9.07;;;24.30;99.90;;;;;;6323100;28;20232;-60
2023/06/10 09:03:31;;;;;;;9.90;8.90;;;24.40;99.90;;;;;;6335595;28;20309;-60
2023/06/10 09:06:36;;;;;;;9.83;9.03;;;24.50;99.90;;;;;;6335836;28;20230;-60
2023/06/10 09:09:39;;;;;;;10.00;9.20;;;24.40;99.90;;;;;;6356230;27;20254;-60
2023/06/10 09:12:42;;;;;;;10.37;9.47;;;24.50;99.90;;;;;;6349751;27;20228;-60
2023/06/10 09:15:47;;;;;;;10.50;9.63;;;24.60;99.90;;;;;;6332123;28;20228;-61
2023/06/10 09:18:54;;;;;;;9.47;8.43;;;24.70;99.90;;;;;;6323741;28;20229;-59
2023/06/10 09:21:59;;;;;;;9.80;9.00;;;24.70;99.90;;;;;;6314686;28;20246;-59
2023/06/10 09:25:07;;;;;;;10.73;9.83;;;24.60;99.90;;;;;;6323689;28;20363;-59
2023/06/10 09:28:15;;;;;;;10.57;9.67;;;24.70;99.90;;;;;;6324064;28;20279;-59
2023/06/10 09:31:21;;;;;;;10.10;8.43;;;24.50;99.90;;;;;;6324170;28;20254;-59
2023/06/10 09:34:27;;;;;;;10.53;9.70;;;24.10;99.90;;;;;;6323779;28;20315;-59
2023/06/10 09:37:30;;;;;;;9.00;8.33;;;24.10;99.90;;;;;;6323886;28;20226;-59
2023/06/10 09:40:41;;;;;;;10.30;9.40;;;24.30;99.90;;;;;;6323818;28;20272;-59
2023/06/10 09:43:48;;;;;;;9.73;8.93;;;24.50;99.90;;;;;;6326245;28;20686;-60
2023/06/10 09:46:53;;;;;;;9.97;8.70;;;24.60;99.90;;;;;;6327922;28;20348;-60
2023/06/10 09:49:57;;;;;;;10.77;9.93;;;24.70;99.90;;;;;;6327798;28;20556;-59
2023/06/10 09:53:02;;;;;;;9.00;8.23;;;24.80;99.90;;;;;;6328561;28;20202;-59
2023/06/10 09:56:06;;;;;;;8.50;7.80;;;24.90;99.90;;;;;;6327978;28;20234;-60
2023/06/10 09:59:12;;;;;;;9.67;8.97;;;25.10;99.90;;;;;;6328428;28;20237;-60
2023/06/10 10:02:16;;;;;;;9.80;9.00;;;25.30;99.90;;;;;;6327864;28;20700;-60
2023/06/10 10:05:22;;;;;;;10.10;9.40;;;25.60;99.70;;;;;;6328353;28;20328;-60
2023/06/10 10:08:26;;;;;;;9.70;8.97;;;25.90;99.40;;;;;;6327451;28;20230;-60
2023/06/10 10:11:30;;;;;;;9.27;8.57;;;26.00;98.80;;;;;;6327546;28;20796;-60
2023/06/10 10:14:33;;;;;;;11.10;10.00;;;26.20;98.70;;;;;;6327075;28;20282;-60
2023/06/10 10:17:41;;;;;;;10.33;9.53;;;26.30;97.70;;;;;;6327264;28;20225;-60
2023/06/10 10:20:52;;;;;;;9.53;8.83;;;26.40;97.80;;;;;;6326706;28;20244;-60
2023/06/10 10:24:01;;;;;;;11.07;8.60;;;26.70;97.30;;;;;;6317851;28;20240;-60
2023/06/10 10:27:12;;;;;;;10.00;9.20;;;26.90;96.50;;;;;;6326766;28;20574;-60
2023/06/10 10:30:17;;;;;;;9.97;9.17;;;27.00;96.40;;;;;;6327083;28;20228;-60
2023/06/10 10:33:28;;;;;;;9.63;8.87;;;27.00;96.40;;;;;;6340931;28;20229;-61
2023/06/10 10:36:34;;;;;;;11.10;10.23;;;27.10;96.30;;;;;;6327440;28;20322;-61
2023/06/10 10:39:38;;;;;;;10.03;9.33;;;27.40;95.40;;;;;;6315199;28;20221;-60
2023/06/10 10:42:41;;;;;;;9.80;9.10;;;27.70;94.90;;;;;;6327012;28;20530;-60
2023/06/10 10:45:58;;;;;;;10.13;9.37;;;28.00;94.70;;;;;;6325742;28;20245;-61
2023/06/10 10:49:03;;;;;;;9.47;8.70;;;28.40;94.00;;;;;;6301140;28;20348;-61
2023/06/10 10:52:12;;;;;;;9.33;8.63;;;28.70;93.40;;;;;;6319851;28;20230;-62
2023/06/10 10:55:16;;;;;;;8.90;8.30;;;28.70;92.40;;;;;;6326340;28;20313;-60
2023/06/10 10:58:25;;;;;;;8.60;7.90;;;28.80;92.20;;;;;;6326706;28;20233;-61
2023/06/10 11:01:41;;;;;;;9.23;8.60;;;28.90;91.90;;;;;;6326508;28;20259;-62
2023/06/10 11:04:48;;;;;;;9.47;8.77;;;29.30;91.10;;;;;;6326509;28;20226;-61
2023/06/10 11:07:56;;;;;;;8.83;8.23;;;29.30;90.50;;;;;;6326474;28;20225;-61
2023/06/10 11:10:59;;;;;;;8.30;7.70;;;29.40;89.40;;;;;;6326345;28;20700;-61
2023/06/10 11:14:12;;;;;;;8.60;8.00;;;29.50;88.80;;;;;;6326596;28;20201;-63
2023/06/10 11:17:20;;;;;;;8.63;8.03;;;29.60;87.90;;;;;;6326181;28;20877;-61
2023/06/10 11:20:55;;;;;;;7.90;7.30;;;29.70;88.50;;;;;;6326098;28;20229;-61
2023/06/10 11:24:00;;;;;;;7.90;7.40;;;29.80;86.60;;;;;;6325807;28;20255;-61
2023/06/10 11:27:18;;;;;;;8.33;7.73;;;29.80;85.40;;;;;;6325829;28;20240;-62
2023/06/10 11:30:22;;;;;;;8.37;7.77;;;29.70;84.70;;;;;;6325839;28;20253;-61
2023/06/10 11:33:26;;;;;;;8.43;7.73;;;29.70;82.90;;;;;;6325294;28;20236;-61
2023/06/10 11:36:29;;;;;;;8.83;8.23;;;29.60;81.90;;;;;;6324788;28;20298;-61
2023/06/10 11:39:34;;;;;;;8.60;8.00;;;29.50;82.50;;;;;;6322729;28;20229;-61
2023/06/10 11:42:41;;;;;;;8.30;7.70;;;29.30;83.10;;;;;;6324992;28;20362;-62
2023/06/10 11:45:44;;;;;;;9.33;8.37;;;29.50;83.00;;;;;;6325072;28;20232;-61
2023/06/10 11:48:51;;;;;;;8.33;7.73;;;29.50;82.80;;;;;;6324995;28;20226;-61
2023/06/10 11:51:54;;;;;;;8.30;7.70;;;29.50;81.70;;;;;;6325373;28;20221;-61
2023/06/10 11:54:59;;;;;;;8.00;7.40;;;29.60;82.10;;;;;;6325170;28;20233;-60
2023/06/10 11:58:03;;;;;;;8.83;8.13;;;29.50;81.80;;;;;;6325114;28;20229;-60
2023/06/10 12:01:06;;;;;;;9.47;8.77;;;28.90;82.80;;;;;;6325148;28;20225;-61
2023/06/10 12:04:11;;;;;;;8.20;7.60;;;28.80;84.10;;;;;;6325164;28;20221;-61
2023/06/10 12:07:19;;;;;;;9.50;8.80;;;28.40;84.30;;;;;;6321509;28;20233;-62
2023/06/10 12:10:24;;;;;;;8.87;8.10;;;28.20;85.10;;;;;;6322931;28;20221;-62
2023/06/10 12:13:30;;;;;;;7.70;7.07;;;28.50;85.30;;;;;;6337286;28;20217;-62
2023/06/10 12:16:34;;;;;;;7.40;6.90;;;28.70;84.00;;;;;;6346202;28;20235;-63
2023/06/10 12:19:39;;;;;;;7.73;7.13;;;28.80;80.90;;;;;;6348547;28;20240;-63
2023/06/10 12:22:44;;;;;;;7.40;6.83;;;28.80;80.90;;;;;;6341608;28;20255;-63
2023/06/10 12:25:52;;;;;;;7.50;7.00;;;28.70;81.60;;;;;;6345265;28;20221;-63
2023/06/10 12:28:56;;;;;;;7.43;6.93;;;29.10;81.70;;;;;;6331702;28;20229;-61
2023/06/10 12:32:00;;;;;;;6.83;6.33;;;29.50;81.80;;;;;;6344604;28;20205;-63
2023/06/10 12:35:05;;;;;;;7.00;6.50;;;30.00;79.50;;;;;;6324087;28;20212;-62
2023/06/10 12:38:11;;;;;;;6.75;6.30;;;30.30;78.70;;;;;;6324257;28;20206;-63
2023/06/10 12:41:16;;;;;;;7.30;6.63;;;30.30;77.70;;;;;;6344026;28;20237;-62
2023/06/10 12:44:20;;;;;;;8.27;7.67;;;30.10;78.30;;;;;;6343390;28;20236;-63
2023/06/10 12:47:32;;;;;;;7.40;6.80;;;29.80;78.20;;;;;;6350237;28;20229;-62
2023/06/10 12:50:37;;;;;;;7.80;7.20;;;29.20;80.70;;;;;;6352212;28;20224;-63
2023/06/10 12:53:40;;;;;;;9.33;8.43;;;28.80;84.10;;;;;;6348371;28;20224;-62
2023/06/10 12:56:45;;;;;;;10.17;8.40;;;28.40;88.50;;;;;;6342174;28;20213;-63
2023/06/10 12:59:52;;;;;;;8.23;7.43;;;28.20;90.90;;;;;;6348133;28;20225;-63
2023/06/10 13:02:55;;;;;;;9.07;8.17;;;28.00;92.00;;;;;;6349872;28;20217;-62
2023/06/10 13:05:58;;;;;;;8.97;8.17;;;27.90;93.00;;;;;;6349388;28;20224;-63
2023/06/10 13:09:02;;;;;;;8.77;7.97;;;27.80;92.80;;;;;;6349625;28;20309;-61
2023/06/10 13:12:09;;;;;;;7.83;7.13;;;27.90;93.00;;;;;;6349293;28;20229;-62
2023/06/10 13:15:18;;;;;;;9.17;8.30;;;28.00;93.30;;;;;;6346824;28;20240;-63
2023/06/10 13:18:22;;;;;;;8.33;7.73;;;28.10;93.40;;;;;;6348252;28;20232;-62
2023/06/10 13:21:25;;;;;;;8.13;7.43;;;28.00;93.40;;;;;;6328983;28;20286;-62
2023/06/10 13:24:28;;;;;;;7.57;6.97;;;28.00;92.70;;;;;;6328663;28;20240;-62
2023/06/10 13:27:33;;;;;;;8.07;7.47;;;28.20;92.70;;;;;;6337053;28;20232;-62
2023/06/10 13:30:36;;;;;;;7.60;7.00;;;28.30;92.10;;;;;;6351509;27;20229;-62
2023/06/10 13:33:40;;;;;;;7.13;6.53;;;28.40;91.70;;;;;;6352059;28;20223;-62
2023/06/10 13:36:43;;;;;;;7.30;6.70;;;28.30;91.40;;;;;;6345460;28;20564;-63
2023/06/10 13:39:48;;;;;;;6.60;6.10;;;27.10;91.30;;;;;;6352739;28;20229;-62
2023/06/10 13:42:54;;;;;;;6.77;6.27;;;26.00;92.60;;;;;;6352619;28;20543;-62
2023/06/10 13:46:03;;;;;;;6.60;5.97;;;25.40;93.50;;;;;;6351317;27;20225;-61
2023/06/10 13:49:06;;;;;;;6.50;6.00;;;24.90;95.20;;;;;;6342316;28;20358;-61
2023/06/10 13:52:09;;;;;;;6.00;5.50;;;24.90;94.70;;;;;;6355108;27;20304;-61
2023/06/10 13:55:12;;;;;;;6.43;5.93;;;24.50;94.90;;;;;;6359795;27;20503;-61
2023/06/10 13:58:17;;;;;;;6.30;5.80;;;24.60;95.40;;;;;;6345828;28;20241;-61
2023/06/10 14:01:20;;;;;;;5.60;5.20;;;24.70;95.50;;;;;;6351412;28;20218;-61
2023/06/10 14:04:24;;;;;;;5.93;5.33;;;24.80;96.30;;;;;;6351751;28;20298;-60
2023/06/10 14:07:27;;;;;;;6.77;6.27;;;24.70;96.50;;;;;;6345867;28;20222;-62
2023/06/10 14:10:30;;;;;;;7.37;6.10;;;24.60;98.10;;;;;;6350509;28;20684;-61
2023/06/10 14:13:35;;;;;;;6.37;5.87;;;24.30;98.90;;;;;;6350809;27;20217;-61
2023/06/10 14:16:38;;;;;;;7.47;6.87;;;24.10;99.90;;;;;;6349344;27;20210;-62
2023/06/10 14:19:45;;;;;;;7.73;7.00;;;23.90;99.90;;;;;;6350400;27;20483;-61
2023/06/10 14:22:48;;;;;;;7.23;6.63;;;23.70;99.90;;;;;;6351103;27;20227;-62
2023/06/10 14:25:51;;;;;;;6.70;6.20;;;23.60;99.90;;;;;;6351777;28;20221;-61
2023/06/10 14:28:56;;;;;;;7.03;6.43;;;23.50;99.90;;;;;;6331046;28;20230;-62
2023/06/10 14:31:59;;;;;;;7.17;6.67;;;23.50;99.90;;;;;;6348092;28;20206;-62
2023/06/10 14:35:03;;;;;;;7.30;6.73;;;23.60;99.90;;;;;;6350042;27;20209;-61
2023/06/10 14:38:06;;;;;;;7.83;6.80;;;23.50;99.90;;;;;;6346384;28;20210;-62
2023/06/10 14:41:22;;;;;;;8.27;7.57;;;23.50;99.90;;;;;;6348958;28;20225;-62
2023/06/10 14:44:26;;;;;;;6.50;6.00;;;23.60;99.90;;;;;;6350154;28;20233;-62
2023/06/10 14:47:29;;;;;;;8.30;7.60;;;23.50;99.90;;;;;;6350101;28;20308;-62
2023/06/10 14:50:33;;;;;;;7.90;7.30;;;23.50;99.90;;;;;;6345971;28;20661;-62
2023/06/10 14:53:36;;;;;;;8.30;7.60;;;23.50;99.90;;;;;;6351470;28;20217;-62
2023/06/10 14:56:39;;;;;;;7.63;7.03;;;23.50;99.90;;;;;;6351653;28;20576;-62
2023/06/10 14:59:44;;;;;;;7.43;6.83;;;23.30;99.90;;;;;;6343747;28;20636;-62
2023/06/10 15:02:47;;;;;;;7.23;6.63;;;23.30;99.90;;;;;;6361808;27;20316;-61
2023/06/10 15:05:52;;;;;;;7.23;6.63;;;23.40;99.90;;;;;;6346992;28;20217;-60
2023/06/10 15:08:55;;;;;;;7.40;6.80;;;23.40;99.90;;;;;;6350113;28;20684;-59
2023/06/10 15:11:59;;;;;;;7.57;6.97;;;23.40;99.90;;;;;;6369675;27;20590;-60
2023/06/10 15:15:04;;;;;;;7.17;6.63;;;23.60;99.90;;;;;;6360679;27;20672;-59
2023/06/10 15:18:10;;;;;;;7.20;6.60;;;23.60;99.90;;;;;;6376352;27;20266;-60
2023/06/10 15:21:14;;;;;;;7.40;6.70;;;23.60;99.90;;;;;;6361316;27;20239;-60
2023/06/10 15:24:17;;;;;;;7.60;7.00;;;23.70;99.90;;;;;;6361703;27;20229;-60
2023/06/10 15:27:20;;;;;;;8.43;7.87;;;23.70;99.90;;;;;;6353271;27;20343;-59
2023/06/10 15:30:25;;;;;;;7.70;7.10;;;23.70;99.90;;;;;;6344695;28;20225;-60
2023/06/10 15:33:28;;;;;;;8.80;8.10;;;23.60;99.90;;;;;;6355171;27;20213;-61
2023/06/10 15:36:32;;;;;;;8.27;7.57;;;23.60;99.90;;;;;;6353998;27;20236;-61
2023/06/10 15:39:35;;;;;;;7.97;7.27;;;23.70;99.90;;;;;;6346754;28;20221;-61
2023/06/10 15:42:38;;;;;;;8.40;7.50;;;23.80;99.90;;;;;;6344022;28;20649;-61
2023/06/10 15:45:43;;;;;;;7.13;6.53;;;23.90;99.90;;;;;;6348772;28;20237;-61
2023/06/10 15:48:46;;;;;;;8.57;7.87;;;24.00;99.90;;;;;;6349320;28;20669;-61
2023/06/10 15:51:49;;;;;;;7.27;6.73;;;24.10;99.90;;;;;;6349544;28;20225;-61
2023/06/10 15:54:53;;;;;;;8.67;7.87;;;24.10;99.90;;;;;;6350430;28;20226;-61
2023/06/10 15:57:57;;;;;;;9.03;8.13;;;24.10;99.90;;;;;;6350430;28;20303;-61
2023/06/10 16:01:02;;;;;;;7.63;7.00;;;24.20;99.90;;;;;;6350556;28;20258;-61